sensor_id;sensor_type;location;lat;lon;timestamp;P1;durP1;ratioP1;P2;durP2;ratioP2
37445;SDS011;23307;51.136;14.942;2023-06-19T00:02:05;14.10;;;12.80;;
37445;SDS011;23307;51.136;14.942;2023-06-19T00:04:30;12.73;;;11.63;;
37445;SDS011;23307;51.136;14.942;2023-06-19T00:06:56;11.98;;;10.88;;
37445;SDS011;23307;51.136;14.942;2023-06-19T00:09:22;13.68;;;12.38;;
37445;SDS011;23307;51.136;14.942;2023-06-19T00:11:48;13.35;;;12.07;;
37445;SDS011;23307;51.136;14.942;2023-06-19T00:14:13;12.88;;;11.60;;
37445;SDS011;23307;51.136;14.942;2023-06-19T00:16:39;12.32;;;10.85;;
37445;SDS011;23307;51.136;14.942;2023-06-19T00:19:05;11.80;;;10.60;;
37445;SDS011;23307;51.136;14.942;2023-06-19T00:21:30;12.85;;;11.68;;
37445;SDS011;23307;51.136;14.942;2023-06-19T00:23:56;12.63;;;11.38;;
37445;SDS011;23307;51.136;14.942;2023-06-19T00:26:22;12.57;;;11.32;;
37445;SDS011;23307;51.136;14.942;2023-06-19T00:28:48;12.48;;;11.18;;
37445;SDS011;23307;51.136;14.942;2023-06-19T00:31:14;12.95;;;11.38;;
37445;SDS011;23307;51.136;14.942;2023-06-19T00:33:41;14.07;;;11.15;;
37445;SDS011;23307;51.136;14.942;2023-06-19T00:36:10;10.77;;;9.88;;
37445;SDS011;23307;51.136;14.942;2023-06-19T00:38:36;11.30;;;10.20;;
37445;SDS011;23307;51.136;14.942;2023-06-19T00:41:03;10.23;;;9.20;;
37445;SDS011;23307;51.136;14.942;2023-06-19T00:43:29;12.13;;;9.70;;
37445;SDS011;23307;51.136;14.942;2023-06-19T00:45:58;10.50;;;9.40;;
37445;SDS011;23307;51.136;14.942;2023-06-19T00:48:24;10.45;;;9.55;;
37445;SDS011;23307;51.136;14.942;2023-06-19T00:50:51;10.73;;;9.65;;
37445;SDS011;23307;51.136;14.942;2023-06-19T00:53:17;10.20;;;9.32;;
37445;SDS011;23307;51.136;14.942;2023-06-19T00:55:44;10.85;;;9.80;;
37445;SDS011;23307;51.136;14.942;2023-06-19T00:58:11;10.32;;;9.35;;
37445;SDS011;23307;51.136;14.942;2023-06-19T01:00:36;11.80;;;9.88;;
37445;SDS011;23307;51.136;14.942;2023-06-19T01:03:02;12.55;;;9.52;;
37445;SDS011;23307;51.136;14.942;2023-06-19T01:05:29;10.32;;;9.32;;
37445;SDS011;23307;51.136;14.942;2023-06-19T01:10:42;10.73;;;9.73;;
37445;SDS011;23307;51.136;14.942;2023-06-19T01:16:02;11.02;;;9.70;;
37445;SDS011;23307;51.136;14.942;2023-06-19T01:18:30;11.15;;;10.05;;
37445;SDS011;23307;51.136;14.942;2023-06-19T01:20:57;11.40;;;10.40;;
37445;SDS011;23307;51.136;14.942;2023-06-19T01:23:33;11.25;;;10.15;;
37445;SDS011;23307;51.136;14.942;2023-06-19T01:25:58;11.38;;;9.52;;
37445;SDS011;23307;51.136;14.942;2023-06-19T01:28:24;12.90;;;10.70;;
37445;SDS011;23307;51.136;14.942;2023-06-19T01:30:51;10.80;;;9.70;;
37445;SDS011;23307;51.136;14.942;2023-06-19T01:33:20;11.10;;;10.10;;
37445;SDS011;23307;51.136;14.942;2023-06-19T01:35:51;11.05;;;10.02;;
37445;SDS011;23307;51.136;14.942;2023-06-19T01:38:17;11.52;;;10.48;;
37445;SDS011;23307;51.136;14.942;2023-06-19T01:40:45;11.60;;;10.50;;
37445;SDS011;23307;51.136;14.942;2023-06-19T01:43:13;10.95;;;9.85;;
37445;SDS011;23307;51.136;14.942;2023-06-19T01:45:39;11.40;;;10.25;;
37445;SDS011;23307;51.136;14.942;2023-06-19T01:48:05;12.18;;;10.98;;
37445;SDS011;23307;51.136;14.942;2023-06-19T01:50:31;11.82;;;9.48;;
37445;SDS011;23307;51.136;14.942;2023-06-19T01:52:56;12.85;;;9.73;;
37445;SDS011;23307;51.136;14.942;2023-06-19T01:55:22;11.25;;;10.25;;
37445;SDS011;23307;51.136;14.942;2023-06-19T01:57:48;10.77;;;9.50;;
37445;SDS011;23307;51.136;14.942;2023-06-19T02:00:13;12.52;;;9.85;;
37445;SDS011;23307;51.136;14.942;2023-06-19T02:02:39;10.13;;;9.18;;
37445;SDS011;23307;51.136;14.942;2023-06-19T02:05:05;9.95;;;9.05;;
37445;SDS011;23307;51.136;14.942;2023-06-19T02:07:30;11.18;;;10.07;;
37445;SDS011;23307;51.136;14.942;2023-06-19T02:09:56;10.35;;;9.30;;
37445;SDS011;23307;51.136;14.942;2023-06-19T02:12:22;11.48;;;9.63;;
37445;SDS011;23307;51.136;14.942;2023-06-19T02:14:48;10.88;;;9.38;;
37445;SDS011;23307;51.136;14.942;2023-06-19T02:17:13;9.88;;;8.98;;
37445;SDS011;23307;51.136;14.942;2023-06-19T02:19:39;10.23;;;9.13;;
37445;SDS011;23307;51.136;14.942;2023-06-19T02:22:04;10.52;;;8.73;;
37445;SDS011;23307;51.136;14.942;2023-06-19T02:24:31;10.75;;;9.07;;
37445;SDS011;23307;51.136;14.942;2023-06-19T02:26:57;10.23;;;9.07;;
37445;SDS011;23307;51.136;14.942;2023-06-19T02:29:23;9.68;;;8.75;;
37445;SDS011;23307;51.136;14.942;2023-06-19T02:31:48;10.25;;;9.35;;
37445;SDS011;23307;51.136;14.942;2023-06-19T02:34:14;10.23;;;9.30;;
37445;SDS011;23307;51.136;14.942;2023-06-19T02:36:40;11.63;;;9.05;;
37445;SDS011;23307;51.136;14.942;2023-06-19T02:39:05;10.35;;;9.35;;
37445;SDS011;23307;51.136;14.942;2023-06-19T02:41:32;11.23;;;9.60;;
37445;SDS011;23307;51.136;14.942;2023-06-19T02:43:57;10.52;;;9.43;;
37445;SDS011;23307;51.136;14.942;2023-06-19T02:46:23;11.93;;;9.13;;
37445;SDS011;23307;51.136;14.942;2023-06-19T02:48:49;10.43;;;9.23;;
37445;SDS011;23307;51.136;14.942;2023-06-19T02:51:14;10.13;;;8.48;;
37445;SDS011;23307;51.136;14.942;2023-06-19T02:53:40;10.45;;;8.52;;
37445;SDS011;23307;51.136;14.942;2023-06-19T02:56:06;12.05;;;9.25;;
37445;SDS011;23307;51.136;14.942;2023-06-19T02:58:32;9.57;;;8.52;;
37445;SDS011;23307;51.136;14.942;2023-06-19T03:00:59;10.35;;;9.18;;
37445;SDS011;23307;51.136;14.942;2023-06-19T03:03:25;10.00;;;8.82;;
37445;SDS011;23307;51.136;14.942;2023-06-19T03:05:50;10.07;;;9.07;;
37445;SDS011;23307;51.136;14.942;2023-06-19T03:08:16;10.07;;;9.07;;
37445;SDS011;23307;51.136;14.942;2023-06-19T03:10:41;10.45;;;9.38;;
37445;SDS011;23307;51.136;14.942;2023-06-19T03:13:07;10.82;;;9.13;;
37445;SDS011;23307;51.136;14.942;2023-06-19T03:15:32;10.20;;;9.15;;
37445;SDS011;23307;51.136;14.942;2023-06-19T03:17:58;9.80;;;8.80;;
37445;SDS011;23307;51.136;14.942;2023-06-19T03:20:24;10.85;;;9.55;;
37445;SDS011;23307;51.136;14.942;2023-06-19T03:22:49;11.07;;;8.77;;
37445;SDS011;23307;51.136;14.942;2023-06-19T03:25:15;15.30;;;9.63;;
37445;SDS011;23307;51.136;14.942;2023-06-19T03:27:40;10.45;;;8.93;;
37445;SDS011;23307;51.136;14.942;2023-06-19T03:30:06;11.20;;;8.50;;
37445;SDS011;23307;51.136;14.942;2023-06-19T03:32:33;12.68;;;9.05;;
37445;SDS011;23307;51.136;14.942;2023-06-19T03:34:59;10.50;;;8.70;;
37445;SDS011;23307;51.136;14.942;2023-06-19T03:37:26;11.55;;;9.55;;
37445;SDS011;23307;51.136;14.942;2023-06-19T03:39:51;10.93;;;8.52;;
37445;SDS011;23307;51.136;14.942;2023-06-19T03:42:17;12.10;;;8.85;;
37445;SDS011;23307;51.136;14.942;2023-06-19T03:44:43;9.10;;;7.93;;
37445;SDS011;23307;51.136;14.942;2023-06-19T03:47:08;10.00;;;9.10;;
37445;SDS011;23307;51.136;14.942;2023-06-19T03:49:34;12.32;;;9.07;;
37445;SDS011;23307;51.136;14.942;2023-06-19T03:51:59;12.57;;;8.73;;
37445;SDS011;23307;51.136;14.942;2023-06-19T03:54:25;11.25;;;8.23;;
37445;SDS011;23307;51.136;14.942;2023-06-19T03:56:51;11.20;;;8.48;;
37445;SDS011;23307;51.136;14.942;2023-06-19T03:59:17;9.27;;;8.38;;
37445;SDS011;23307;51.136;14.942;2023-06-19T04:01:45;10.18;;;8.63;;
37445;SDS011;23307;51.136;14.942;2023-06-19T04:04:13;9.38;;;8.38;;
37445;SDS011;23307;51.136;14.942;2023-06-19T04:06:39;9.63;;;8.63;;
37445;SDS011;23307;51.136;14.942;2023-06-19T04:09:05;10.00;;;9.00;;
37445;SDS011;23307;51.136;14.942;2023-06-19T04:11:31;11.02;;;8.15;;
37445;SDS011;23307;51.136;14.942;2023-06-19T04:13:56;10.02;;;8.30;;
37445;SDS011;23307;51.136;14.942;2023-06-19T04:16:22;9.52;;;8.63;;
37445;SDS011;23307;51.136;14.942;2023-06-19T04:18:47;10.45;;;8.52;;
37445;SDS011;23307;51.136;14.942;2023-06-19T04:21:13;9.23;;;8.32;;
37445;SDS011;23307;51.136;14.942;2023-06-19T04:23:39;10.05;;;7.90;;
37445;SDS011;23307;51.136;14.942;2023-06-19T04:26:04;8.93;;;8.00;;
37445;SDS011;23307;51.136;14.942;2023-06-19T04:28:29;9.05;;;8.15;;
37445;SDS011;23307;51.136;14.942;2023-06-19T04:30:55;9.25;;;8.35;;
37445;SDS011;23307;51.136;14.942;2023-06-19T04:33:26;11.57;;;8.73;;
37445;SDS011;23307;51.136;14.942;2023-06-19T04:35:54;8.90;;;8.10;;
37445;SDS011;23307;51.136;14.942;2023-06-19T04:38:20;9.32;;;7.82;;
37445;SDS011;23307;51.136;14.942;2023-06-19T04:40:51;9.18;;;8.25;;
37445;SDS011;23307;51.136;14.942;2023-06-19T04:43:17;12.50;;;7.82;;
37445;SDS011;23307;51.136;14.942;2023-06-19T04:45:43;9.43;;;8.25;;
37445;SDS011;23307;51.136;14.942;2023-06-19T04:48:08;8.73;;;7.82;;
37445;SDS011;23307;51.136;14.942;2023-06-19T04:50:34;10.25;;;8.43;;
37445;SDS011;23307;51.136;14.942;2023-06-19T04:53:00;9.95;;;7.88;;
37445;SDS011;23307;51.136;14.942;2023-06-19T04:55:25;8.13;;;7.40;;
37445;SDS011;23307;51.136;14.942;2023-06-19T04:57:51;10.35;;;8.23;;
37445;SDS011;23307;51.136;14.942;2023-06-19T05:00:17;8.07;;;7.28;;
37445;SDS011;23307;51.136;14.942;2023-06-19T05:02:44;8.65;;;7.75;;
37445;SDS011;23307;51.136;14.942;2023-06-19T05:05:12;11.07;;;8.23;;
37445;SDS011;23307;51.136;14.942;2023-06-19T05:07:38;8.63;;;7.57;;
37445;SDS011;23307;51.136;14.942;2023-06-19T05:10:03;9.98;;;7.72;;
37445;SDS011;23307;51.136;14.942;2023-06-19T05:12:29;9.25;;;7.32;;
37445;SDS011;23307;51.136;14.942;2023-06-19T05:14:55;8.85;;;8.05;;
37445;SDS011;23307;51.136;14.942;2023-06-19T05:17:20;8.48;;;7.68;;
37445;SDS011;23307;51.136;14.942;2023-06-19T05:19:46;8.02;;;7.32;;
37445;SDS011;23307;51.136;14.942;2023-06-19T05:22:11;8.40;;;7.60;;
37445;SDS011;23307;51.136;14.942;2023-06-19T05:24:37;8.18;;;7.38;;
37445;SDS011;23307;51.136;14.942;2023-06-19T05:27:03;9.43;;;7.30;;
37445;SDS011;23307;51.136;14.942;2023-06-19T05:29:28;8.88;;;7.30;;
37445;SDS011;23307;51.136;14.942;2023-06-19T05:31:55;8.95;;;7.13;;
37445;SDS011;23307;51.136;14.942;2023-06-19T05:34:21;8.45;;;7.22;;
37445;SDS011;23307;51.136;14.942;2023-06-19T05:36:47;8.13;;;6.90;;
37445;SDS011;23307;51.136;14.942;2023-06-19T05:39:13;7.25;;;6.55;;
37445;SDS011;23307;51.136;14.942;2023-06-19T05:41:39;10.10;;;7.20;;
37445;SDS011;23307;51.136;14.942;2023-06-19T05:44:05;8.70;;;7.07;;
37445;SDS011;23307;51.136;14.942;2023-06-19T05:46:30;7.55;;;6.80;;
37445;SDS011;23307;51.136;14.942;2023-06-19T05:48:56;8.93;;;7.22;;
37445;SDS011;23307;51.136;14.942;2023-06-19T05:51:21;11.60;;;6.65;;
37445;SDS011;23307;51.136;14.942;2023-06-19T05:53:47;10.70;;;7.05;;
37445;SDS011;23307;51.136;14.942;2023-06-19T05:56:14;11.15;;;7.03;;
37445;SDS011;23307;51.136;14.942;2023-06-19T05:58:40;7.75;;;6.18;;
37445;SDS011;23307;51.136;14.942;2023-06-19T06:01:05;7.65;;;6.88;;
37445;SDS011;23307;51.136;14.942;2023-06-19T06:03:31;7.45;;;6.53;;
37445;SDS011;23307;51.136;14.942;2023-06-19T06:05:57;9.38;;;6.90;;
37445;SDS011;23307;51.136;14.942;2023-06-19T06:08:31;9.77;;;7.45;;
37445;SDS011;23307;51.136;14.942;2023-06-19T06:10:57;9.88;;;7.18;;
37445;SDS011;23307;51.136;14.942;2023-06-19T06:13:23;7.53;;;6.82;;
37445;SDS011;23307;51.136;14.942;2023-06-19T06:15:48;7.40;;;6.43;;
37445;SDS011;23307;51.136;14.942;2023-06-19T06:18:15;7.22;;;6.53;;
37445;SDS011;23307;51.136;14.942;2023-06-19T06:20:41;7.38;;;6.40;;
37445;SDS011;23307;51.136;14.942;2023-06-19T06:23:06;8.00;;;5.93;;
37445;SDS011;23307;51.136;14.942;2023-06-19T06:25:32;7.32;;;5.57;;
37445;SDS011;23307;51.136;14.942;2023-06-19T06:27:57;8.10;;;6.38;;
37445;SDS011;23307;51.136;14.942;2023-06-19T06:30:22;7.57;;;5.78;;
37445;SDS011;23307;51.136;14.942;2023-06-19T06:32:48;6.82;;;6.07;;
37445;SDS011;23307;51.136;14.942;2023-06-19T06:35:14;7.88;;;5.75;;
37445;SDS011;23307;51.136;14.942;2023-06-19T06:37:40;6.90;;;5.40;;
37445;SDS011;23307;51.136;14.942;2023-06-19T06:40:06;7.82;;;6.20;;
37445;SDS011;23307;51.136;14.942;2023-06-19T06:42:36;6.75;;;6.05;;
37445;SDS011;23307;51.136;14.942;2023-06-19T06:45:02;6.05;;;5.47;;
37445;SDS011;23307;51.136;14.942;2023-06-19T06:47:29;9.18;;;5.57;;
37445;SDS011;23307;51.136;14.942;2023-06-19T06:49:54;8.43;;;5.40;;
37445;SDS011;23307;51.136;14.942;2023-06-19T06:52:20;6.15;;;5.65;;
37445;SDS011;23307;51.136;14.942;2023-06-19T06:54:45;6.13;;;5.00;;
37445;SDS011;23307;51.136;14.942;2023-06-19T06:57:11;6.55;;;5.22;;
37445;SDS011;23307;51.136;14.942;2023-06-19T06:59:36;6.60;;;5.10;;
37445;SDS011;23307;51.136;14.942;2023-06-19T07:02:02;5.43;;;5.03;;
37445;SDS011;23307;51.136;14.942;2023-06-19T07:04:28;6.00;;;5.07;;
37445;SDS011;23307;51.136;14.942;2023-06-19T07:06:53;7.95;;;5.43;;
37445;SDS011;23307;51.136;14.942;2023-06-19T07:09:19;6.25;;;5.65;;
37445;SDS011;23307;51.136;14.942;2023-06-19T07:11:46;6.45;;;5.65;;
37445;SDS011;23307;51.136;14.942;2023-06-19T07:14:11;7.75;;;5.32;;
37445;SDS011;23307;51.136;14.942;2023-06-19T07:16:37;8.35;;;4.75;;
37445;SDS011;23307;51.136;14.942;2023-06-19T07:19:02;6.07;;;5.25;;
37445;SDS011;23307;51.136;14.942;2023-06-19T07:21:28;8.45;;;5.30;;
37445;SDS011;23307;51.136;14.942;2023-06-19T07:23:54;7.13;;;5.15;;
37445;SDS011;23307;51.136;14.942;2023-06-19T07:26:20;9.23;;;5.30;;
37445;SDS011;23307;51.136;14.942;2023-06-19T07:28:46;5.80;;;5.20;;
37445;SDS011;23307;51.136;14.942;2023-06-19T07:31:12;6.18;;;5.57;;
37445;SDS011;23307;51.136;14.942;2023-06-19T07:33:37;7.03;;;5.70;;
37445;SDS011;23307;51.136;14.942;2023-06-19T07:36:03;6.05;;;5.45;;
37445;SDS011;23307;51.136;14.942;2023-06-19T07:38:29;7.85;;;5.88;;
37445;SDS011;23307;51.136;14.942;2023-06-19T07:40:54;7.53;;;5.43;;
37445;SDS011;23307;51.136;14.942;2023-06-19T07:43:20;6.03;;;5.53;;
37445;SDS011;23307;51.136;14.942;2023-06-19T07:45:47;6.25;;;5.53;;
37445;SDS011;23307;51.136;14.942;2023-06-19T07:48:13;6.07;;;5.55;;
37445;SDS011;23307;51.136;14.942;2023-06-19T07:50:39;5.95;;;5.18;;
37445;SDS011;23307;51.136;14.942;2023-06-19T07:53:04;8.70;;;5.43;;
37445;SDS011;23307;51.136;14.942;2023-06-19T07:55:30;6.00;;;5.35;;
37445;SDS011;23307;51.136;14.942;2023-06-19T07:57:56;6.68;;;5.65;;
37445;SDS011;23307;51.136;14.942;2023-06-19T08:00:22;6.38;;;5.45;;
37445;SDS011;23307;51.136;14.942;2023-06-19T08:02:49;6.32;;;4.90;;
37445;SDS011;23307;51.136;14.942;2023-06-19T08:05:15;9.20;;;5.53;;
37445;SDS011;23307;51.136;14.942;2023-06-19T08:07:40;6.43;;;5.88;;
37445;SDS011;23307;51.136;14.942;2023-06-19T08:10:06;7.30;;;5.90;;
37445;SDS011;23307;51.136;14.942;2023-06-19T08:12:32;6.80;;;6.15;;
37445;SDS011;23307;51.136;14.942;2023-06-19T08:14:58;6.75;;;5.80;;
37445;SDS011;23307;51.136;14.942;2023-06-19T08:17:23;6.03;;;5.25;;
37445;SDS011;23307;51.136;14.942;2023-06-19T08:19:49;5.90;;;5.38;;
37445;SDS011;23307;51.136;14.942;2023-06-19T08:22:15;5.60;;;5.10;;
37445;SDS011;23307;51.136;14.942;2023-06-19T08:24:40;6.93;;;5.25;;
37445;SDS011;23307;51.136;14.942;2023-06-19T08:27:06;8.02;;;5.28;;
37445;SDS011;23307;51.136;14.942;2023-06-19T08:29:32;7.43;;;5.22;;
37445;SDS011;23307;51.136;14.942;2023-06-19T08:31:58;7.07;;;5.47;;
37445;SDS011;23307;51.136;14.942;2023-06-19T08:34:24;7.57;;;5.70;;
37445;SDS011;23307;51.136;14.942;2023-06-19T08:36:49;5.97;;;5.30;;
37445;SDS011;23307;51.136;14.942;2023-06-19T08:39:15;6.70;;;5.25;;
37445;SDS011;23307;51.136;14.942;2023-06-19T08:41:40;5.82;;;5.32;;
37445;SDS011;23307;51.136;14.942;2023-06-19T08:44:07;8.10;;;5.60;;
37445;SDS011;23307;51.136;14.942;2023-06-19T08:46:33;7.68;;;5.10;;
37445;SDS011;23307;51.136;14.942;2023-06-19T08:48:59;9.27;;;6.05;;
37445;SDS011;23307;51.136;14.942;2023-06-19T08:51:26;6.90;;;5.65;;
37445;SDS011;23307;51.136;14.942;2023-06-19T08:54:07;5.78;;;5.15;;
37445;SDS011;23307;51.136;14.942;2023-06-19T08:56:33;5.95;;;5.20;;
37445;SDS011;23307;51.136;14.942;2023-06-19T08:59:10;5.90;;;4.85;;
37445;SDS011;23307;51.136;14.942;2023-06-19T09:01:37;5.30;;;4.80;;
37445;SDS011;23307;51.136;14.942;2023-06-19T09:04:09;7.47;;;5.40;;
37445;SDS011;23307;51.136;14.942;2023-06-19T09:06:44;8.05;;;4.95;;
37445;SDS011;23307;51.136;14.942;2023-06-19T09:09:12;6.38;;;5.03;;
37445;SDS011;23307;51.136;14.942;2023-06-19T09:11:39;6.72;;;4.88;;
37445;SDS011;23307;51.136;14.942;2023-06-19T09:14:08;9.05;;;5.30;;
37445;SDS011;23307;51.136;14.942;2023-06-19T09:16:41;5.38;;;4.88;;
37445;SDS011;23307;51.136;14.942;2023-06-19T09:19:07;6.60;;;4.43;;
37445;SDS011;23307;51.136;14.942;2023-06-19T09:21:35;7.05;;;4.95;;
37445;SDS011;23307;51.136;14.942;2023-06-19T09:24:03;5.65;;;5.13;;
37445;SDS011;23307;51.136;14.942;2023-06-19T09:26:33;6.30;;;5.43;;
37445;SDS011;23307;51.136;14.942;2023-06-19T09:29:09;7.18;;;5.00;;
37445;SDS011;23307;51.136;14.942;2023-06-19T09:31:35;7.60;;;5.22;;
37445;SDS011;23307;51.136;14.942;2023-06-19T09:34:02;5.82;;;5.32;;
37445;SDS011;23307;51.136;14.942;2023-06-19T09:36:28;5.32;;;4.80;;
37445;SDS011;23307;51.136;14.942;2023-06-19T09:38:56;7.40;;;5.53;;
37445;SDS011;23307;51.136;14.942;2023-06-19T09:41:24;6.88;;;5.18;;
37445;SDS011;23307;51.136;14.942;2023-06-19T09:43:50;5.75;;;5.22;;
37445;SDS011;23307;51.136;14.942;2023-06-19T09:46:22;6.05;;;5.38;;
37445;SDS011;23307;51.136;14.942;2023-06-19T09:48:54;6.65;;;5.28;;
37445;SDS011;23307;51.136;14.942;2023-06-19T09:51:27;5.70;;;5.20;;
37445;SDS011;23307;51.136;14.942;2023-06-19T09:54:01;5.50;;;4.90;;
37445;SDS011;23307;51.136;14.942;2023-06-19T09:56:29;5.38;;;4.88;;
37445;SDS011;23307;51.136;14.942;2023-06-19T09:58:56;6.82;;;4.88;;
37445;SDS011;23307;51.136;14.942;2023-06-19T10:01:25;5.53;;;5.03;;
37445;SDS011;23307;51.136;14.942;2023-06-19T10:04:01;5.38;;;4.95;;
37445;SDS011;23307;51.136;14.942;2023-06-19T10:06:30;5.43;;;4.93;;
37445;SDS011;23307;51.136;14.942;2023-06-19T10:09:05;6.38;;;5.45;;
37445;SDS011;23307;51.136;14.942;2023-06-19T10:11:44;5.63;;;5.10;;
37445;SDS011;23307;51.136;14.942;2023-06-19T10:14:11;7.43;;;5.45;;
37445;SDS011;23307;51.136;14.942;2023-06-19T10:16:37;6.05;;;5.43;;
37445;SDS011;23307;51.136;14.942;2023-06-19T10:19:10;5.68;;;5.18;;
37445;SDS011;23307;51.136;14.942;2023-06-19T10:21:49;5.20;;;4.80;;
37445;SDS011;23307;51.136;14.942;2023-06-19T10:24:18;5.45;;;4.95;;
37445;SDS011;23307;51.136;14.942;2023-06-19T10:27:00;5.93;;;5.18;;
37445;SDS011;23307;51.136;14.942;2023-06-19T10:29:37;5.30;;;4.90;;
37445;SDS011;23307;51.136;14.942;2023-06-19T10:32:04;5.40;;;4.88;;
37445;SDS011;23307;51.136;14.942;2023-06-19T10:34:33;7.28;;;5.32;;
37445;SDS011;23307;51.136;14.942;2023-06-19T10:36:59;5.80;;;5.25;;
37445;SDS011;23307;51.136;14.942;2023-06-19T10:39:24;5.65;;;5.15;;
37445;SDS011;23307;51.136;14.942;2023-06-19T10:41:50;5.43;;;4.93;;
37445;SDS011;23307;51.136;14.942;2023-06-19T10:44:16;6.30;;;5.15;;
37445;SDS011;23307;51.136;14.942;2023-06-19T10:46:41;5.85;;;5.32;;
37445;SDS011;23307;51.136;14.942;2023-06-19T10:49:07;6.03;;;5.43;;
37445;SDS011;23307;51.136;14.942;2023-06-19T10:51:36;5.50;;;4.93;;
37445;SDS011;23307;51.136;14.942;2023-06-19T10:54:07;7.97;;;5.20;;
37445;SDS011;23307;51.136;14.942;2023-06-19T10:56:33;6.20;;;5.57;;
37445;SDS011;23307;51.136;14.942;2023-06-19T10:59:05;5.20;;;4.80;;
37445;SDS011;23307;51.136;14.942;2023-06-19T11:01:41;6.10;;;5.50;;
37445;SDS011;23307;51.136;14.942;2023-06-19T11:04:10;6.43;;;5.30;;
37445;SDS011;23307;51.136;14.942;2023-06-19T11:06:37;5.78;;;5.15;;
37445;SDS011;23307;51.136;14.942;2023-06-19T11:09:05;6.07;;;5.22;;
37445;SDS011;23307;51.136;14.942;2023-06-19T11:11:42;6.03;;;5.25;;
37445;SDS011;23307;51.136;14.942;2023-06-19T11:14:09;5.53;;;4.97;;
37445;SDS011;23307;51.136;14.942;2023-06-19T11:16:38;6.13;;;5.53;;
37445;SDS011;23307;51.136;14.942;2023-06-19T11:19:06;5.80;;;5.15;;
37445;SDS011;23307;51.136;14.942;2023-06-19T11:21:39;5.95;;;5.35;;
37445;SDS011;23307;51.136;14.942;2023-06-19T11:24:05;6.30;;;5.10;;
37445;SDS011;23307;51.136;14.942;2023-06-19T11:26:37;6.10;;;5.60;;
37445;SDS011;23307;51.136;14.942;2023-06-19T11:29:15;6.57;;;5.45;;
37445;SDS011;23307;51.136;14.942;2023-06-19T11:31:41;6.22;;;5.63;;
37445;SDS011;23307;51.136;14.942;2023-06-19T11:34:07;6.05;;;5.45;;
37445;SDS011;23307;51.136;14.942;2023-06-19T11:36:32;6.32;;;5.35;;
37445;SDS011;23307;51.136;14.942;2023-06-19T11:39:01;5.57;;;5.18;;
37445;SDS011;23307;51.136;14.942;2023-06-19T11:41:31;6.60;;;5.22;;
37445;SDS011;23307;51.136;14.942;2023-06-19T11:43:58;5.75;;;5.05;;
37445;SDS011;23307;51.136;14.942;2023-06-19T11:46:31;5.82;;;5.32;;
37445;SDS011;23307;51.136;14.942;2023-06-19T11:51:37;6.50;;;5.35;;
37445;SDS011;23307;51.136;14.942;2023-06-19T11:54:06;6.18;;;5.57;;
37445;SDS011;23307;51.136;14.942;2023-06-19T11:56:36;6.38;;;5.75;;
37445;SDS011;23307;51.136;14.942;2023-06-19T11:59:03;6.45;;;5.20;;
37445;SDS011;23307;51.136;14.942;2023-06-19T12:01:29;6.20;;;5.60;;
37445;SDS011;23307;51.136;14.942;2023-06-19T12:03:56;7.40;;;5.63;;
37445;SDS011;23307;51.136;14.942;2023-06-19T12:06:22;6.40;;;5.90;;
37445;SDS011;23307;51.136;14.942;2023-06-19T12:08:48;6.00;;;5.50;;
37445;SDS011;23307;51.136;14.942;2023-06-19T12:11:13;6.55;;;5.45;;
37445;SDS011;23307;51.136;14.942;2023-06-19T12:13:42;6.70;;;5.82;;
37445;SDS011;23307;51.136;14.942;2023-06-19T12:16:09;6.05;;;5.55;;
37445;SDS011;23307;51.136;14.942;2023-06-19T12:18:35;7.10;;;5.47;;
37445;SDS011;23307;51.136;14.942;2023-06-19T12:21:00;5.90;;;5.40;;
37445;SDS011;23307;51.136;14.942;2023-06-19T12:23:26;5.68;;;5.28;;
37445;SDS011;23307;51.136;14.942;2023-06-19T12:25:52;6.15;;;5.53;;
37445;SDS011;23307;51.136;14.942;2023-06-19T12:28:17;5.90;;;5.30;;
37445;SDS011;23307;51.136;14.942;2023-06-19T12:30:44;6.20;;;5.63;;
37445;SDS011;23307;51.136;14.942;2023-06-19T12:33:10;5.72;;;5.32;;
37445;SDS011;23307;51.136;14.942;2023-06-19T12:35:38;5.85;;;5.45;;
37445;SDS011;23307;51.136;14.942;2023-06-19T12:38:04;6.28;;;5.60;;
37445;SDS011;23307;51.136;14.942;2023-06-19T12:40:30;6.13;;;5.53;;
37445;SDS011;23307;51.136;14.942;2023-06-19T12:42:55;6.03;;;5.43;;
37445;SDS011;23307;51.136;14.942;2023-06-19T12:45:21;6.00;;;5.38;;
37445;SDS011;23307;51.136;14.942;2023-06-19T12:47:46;6.43;;;5.75;;
37445;SDS011;23307;51.136;14.942;2023-06-19T12:50:12;7.70;;;6.13;;
37445;SDS011;23307;51.136;14.942;2023-06-19T12:52:37;6.00;;;5.45;;
37445;SDS011;23307;51.136;14.942;2023-06-19T12:55:03;6.57;;;5.50;;
37445;SDS011;23307;51.136;14.942;2023-06-19T12:57:29;6.47;;;5.60;;
37445;SDS011;23307;51.136;14.942;2023-06-19T12:59:54;6.15;;;5.55;;
37445;SDS011;23307;51.136;14.942;2023-06-19T13:02:20;6.70;;;5.32;;
37445;SDS011;23307;51.136;14.942;2023-06-19T13:04:46;5.53;;;5.03;;
37445;SDS011;23307;51.136;14.942;2023-06-19T13:07:11;8.38;;;5.75;;
37445;SDS011;23307;51.136;14.942;2023-06-19T13:09:37;5.90;;;5.40;;
37445;SDS011;23307;51.136;14.942;2023-06-19T13:12:03;6.57;;;5.32;;
37445;SDS011;23307;51.136;14.942;2023-06-19T13:14:28;5.50;;;5.00;;
37445;SDS011;23307;51.136;14.942;2023-06-19T13:16:56;5.57;;;4.93;;
37445;SDS011;23307;51.136;14.942;2023-06-19T13:19:22;5.95;;;5.35;;
37445;SDS011;23307;51.136;14.942;2023-06-19T13:21:48;6.05;;;5.45;;
37445;SDS011;23307;51.136;14.942;2023-06-19T13:24:13;5.63;;;5.13;;
37445;SDS011;23307;51.136;14.942;2023-06-19T13:26:39;6.32;;;5.35;;
37445;SDS011;23307;51.136;14.942;2023-06-19T13:29:05;5.35;;;4.95;;
37445;SDS011;23307;51.136;14.942;2023-06-19T13:31:30;5.47;;;5.07;;
37445;SDS011;23307;51.136;14.942;2023-06-19T13:33:56;5.78;;;5.28;;
37445;SDS011;23307;51.136;14.942;2023-06-19T13:36:22;5.22;;;4.82;;
37445;SDS011;23307;51.136;14.942;2023-06-19T13:38:48;5.78;;;5.22;;
37445;SDS011;23307;51.136;14.942;2023-06-19T13:41:14;6.63;;;5.47;;
37445;SDS011;23307;51.136;14.942;2023-06-19T13:43:40;6.60;;;5.00;;
37445;SDS011;23307;51.136;14.942;2023-06-19T13:46:05;5.22;;;4.72;;
37445;SDS011;23307;51.136;14.942;2023-06-19T13:48:31;6.18;;;5.28;;
37445;SDS011;23307;51.136;14.942;2023-06-19T13:50:57;8.25;;;5.45;;
37445;SDS011;23307;51.136;14.942;2023-06-19T13:53:24;6.40;;;5.25;;
37445;SDS011;23307;51.136;14.942;2023-06-19T13:55:50;5.80;;;5.20;;
37445;SDS011;23307;51.136;14.942;2023-06-19T13:58:15;6.00;;;5.40;;
37445;SDS011;23307;51.136;14.942;2023-06-19T14:00:41;6.55;;;5.35;;
37445;SDS011;23307;51.136;14.942;2023-06-19T14:03:06;6.00;;;5.32;;
37445;SDS011;23307;51.136;14.942;2023-06-19T14:05:32;6.35;;;5.78;;
37445;SDS011;23307;51.136;14.942;2023-06-19T14:07:58;7.28;;;5.22;;
37445;SDS011;23307;51.136;14.942;2023-06-19T14:10:24;6.22;;;5.63;;
37445;SDS011;23307;51.136;14.942;2023-06-19T14:12:49;8.00;;;5.10;;
37445;SDS011;23307;51.136;14.942;2023-06-19T14:15:15;6.22;;;5.63;;
37445;SDS011;23307;51.136;14.942;2023-06-19T14:17:41;6.20;;;5.57;;
37445;SDS011;23307;51.136;14.942;2023-06-19T14:20:07;6.30;;;5.57;;
37445;SDS011;23307;51.136;14.942;2023-06-19T14:22:35;8.65;;;5.63;;
37445;SDS011;23307;51.136;14.942;2023-06-19T14:25:01;7.60;;;5.88;;
37445;SDS011;23307;51.136;14.942;2023-06-19T14:27:27;7.93;;;5.88;;
37445;SDS011;23307;51.136;14.942;2023-06-19T14:29:53;6.18;;;5.57;;
37445;SDS011;23307;51.136;14.942;2023-06-19T14:32:20;6.75;;;6.05;;
37445;SDS011;23307;51.136;14.942;2023-06-19T14:34:46;6.60;;;5.70;;
37445;SDS011;23307;51.136;14.942;2023-06-19T14:37:12;6.32;;;5.40;;